Time;durP1;ratioP1;P1;durP2;ratioP2;P2;SDS_P1;SDS_P2;PMS_P1;PMS_P2;Temp;Humidity;BMP_temperature;BMP_pressure;BME280_temperature;BME280_humidity;BME280_pressure;Samples;Min_cycle;Max_cycle;Signal;HPM_P1;HPM_P2
2021/08/04 00:00:24;;;;;;;;;;;;;;;20.48;61.33;100705.00;5160294;27;782;-39
2021/08/04 00:02:49;;;;;;;;;;;;;;;20.66;61.45;100710.75;5160669;27;890;-59
2021/08/04 00:05:15;;;;;;;;;;;;;;;20.81;60.64;100710.53;5159913;27;1901;-58
2021/08/04 00:07:40;;;;;;;;;;;;;;;20.82;60.58;100712.16;5160602;27;834;-59
2021/08/04 00:10:06;;;;;;;;;;;;;;;20.59;61.56;100711.16;5160376;27;771;-59
2021/08/04 00:12:31;;;;;;;;;;;;;;;20.38;61.04;100723.66;5159424;27;961;-48
2021/08/04 00:14:57;;;;;;;;;;;;;;;19.82;60.77;100723.38;5160144;27;853;-59
2021/08/04 00:17:22;;;;;;;;;;;;;;;20.20;63.09;100717.03;5160195;27;786;-46
2021/08/04 00:19:48;;;;;;;;;;;;;;;20.65;61.27;100717.41;5159499;27;818;-59
2021/08/04 00:22:13;;;;;;;;;;;;;;;20.78;60.54;100713.91;5159906;27;755;-45
2021/08/04 00:24:38;;;;;;;;;;;;;;;20.72;60.71;100711.53;5159904;27;728;-59
2021/08/04 00:27:04;;;;;;;;;;;;;;;20.69;60.87;100712.94;5159394;27;1894;-38
2021/08/04 00:29:29;;;;;;;;;;;;;;;20.40;60.49;100710.38;5160252;27;759;-59
2021/08/04 00:31:55;;;;;;;;;;;;;;;19.97;61.21;100703.03;5159690;27;834;-58
2021/08/04 00:34:20;;;;;;;;;;;;;;;20.30;62.29;100714.09;5141370;27;677;-59
2021/08/04 00:36:46;;;;;;;;;;;;;;;20.72;60.92;100709.59;5159790;27;854;-56
2021/08/04 00:39:12;;;;;;;;;;;;;;;20.80;60.38;100708.91;5141059;27;1183;-60
2021/08/04 00:41:41;;;;;;;;;;;;;;;20.78;60.51;100711.13;5140920;27;1228;-60
2021/08/04 00:44:06;;;;;;;;;;;;;;;20.49;61.46;100714.09;5159434;27;771;-58
2021/08/04 00:46:32;;;;;;;;;;;;;;;20.47;60.98;100705.31;5141103;27;1976;-60
2021/08/04 00:48:58;;;;;;;;;;;;;;;19.94;60.77;100709.16;5159583;27;791;-59
2021/08/04 00:51:23;;;;;;;;;;;;;;;20.26;62.86;100702.88;5123768;27;1145;-40
2021/08/04 00:53:49;;;;;;;;;;;;;;;20.62;61.40;100707.81;5158928;27;1216;-61
2021/08/04 00:56:14;;;;;;;;;;;;;;;21.10;59.73;100711.41;5156924;27;961;-53
2021/08/04 00:58:40;;;;;;;;;;;;;;;20.85;60.28;100711.56;5120442;27;1133;-61
2021/08/04 01:01:09;;;;;;;;;;;;;;;20.61;61.55;100706.16;5120291;27;1314;-60
2021/08/04 01:03:42;;;;;;;;;;;;;;;20.69;60.14;100707.41;5138035;27;826;-59
2021/08/04 01:06:09;;;;;;;;;;;;;;;20.27;60.17;100706.44;5138198;27;1968;-60
2021/08/04 01:08:36;;;;;;;;;;;;;;;20.43;62.06;100699.53;5103395;27;1259;-43
2021/08/04 01:11:02;;;;;;;;;;;;;;;20.83;60.96;100702.75;5119965;27;965;-60
2021/08/04 01:13:28;;;;;;;;;;;;;;;20.81;60.73;100699.47;5119503;27;954;-55
2021/08/04 01:15:56;;;;;;;;;;;;;;;20.64;61.22;100693.69;5138050;27;756;-38
2021/08/04 01:18:26;;;;;;;;;;;;;;;20.59;60.90;100697.34;5119851;27;1145;-62
2021/08/04 01:20:51;;;;;;;;;;;;;;;20.04;60.50;100695.19;5119366;27;1156;-39
2021/08/04 01:23:21;;;;;;;;;;;;;;;19.98;63.87;100696.41;5119219;27;853;-62
2021/08/04 01:25:52;;;;;;;;;;;;;;;20.41;62.36;100696.28;5119544;27;1913;-63
2021/08/04 01:28:28;;;;;;;;;;;;;;;20.85;60.89;100694.97;5118594;27;1886;-62
2021/08/04 01:30:56;;;;;;;;;;;;;;;20.94;60.43;100695.06;5119027;27;1035;-38
2021/08/04 01:33:21;;;;;;;;;;;;;;;20.52;61.74;100692.22;5118303;27;907;-60
2021/08/04 01:35:47;;;;;;;;;;;;;;;20.47;61.89;100695.06;5119523;27;1125;-60
2021/08/04 01:38:13;;;;;;;;;;;;;;;20.26;60.28;100696.50;5119459;27;838;-50
2021/08/04 01:40:39;;;;;;;;;;;;;;;20.18;62.88;100692.50;5119475;27;747;-60
2021/08/04 01:43:05;;;;;;;;;;;;;;;20.47;62.19;100700.59;5119051;27;1275;-60
2021/08/04 01:45:30;;;;;;;;;;;;;;;20.78;60.88;100694.56;5119741;27;1992;-38
2021/08/04 01:47:56;;;;;;;;;;;;;;;20.94;60.35;100697.03;5119189;27;867;-60
2021/08/04 01:50:21;;;;;;;;;;;;;;;20.69;61.01;100690.84;5119031;27;835;-38
2021/08/04 01:52:47;;;;;;;;;;;;;;;20.54;61.38;100696.59;5102672;27;1114;-58
2021/08/04 01:55:13;;;;;;;;;;;;;;;20.42;59.71;100695.13;5156115;27;1279;-60
2021/08/04 01:57:38;;;;;;;;;;;;;;;20.31;62.46;100701.94;5157775;27;953;-59
2021/08/04 02:00:04;;;;;;;;;;;;;;;20.51;61.90;100696.09;5123047;27;1397;-39
2021/08/04 02:02:39;;;;;;;;;;;;;;;21.08;59.85;100702.56;5158331;27;675;-58
2021/08/04 02:05:05;;;;;;;;;;;;;;;20.75;60.69;100706.22;5139581;27;1909;-63
2021/08/04 02:07:42;;;;;;;;;;;;;;;20.54;61.61;100707.66;5158136;27;822;-61
2021/08/04 02:10:08;;;;;;;;;;;;;;;20.59;60.81;100713.09;5140015;27;1155;-60
2021/08/04 02:12:41;;;;;;;;;;;;;;;20.18;59.84;100711.81;5139412;27;1204;-47
2021/08/04 02:15:08;;;;;;;;;;;;;;;20.14;62.75;100706.06;5158166;27;830;-64
2021/08/04 02:17:40;;;;;;;;;;;;;;;20.46;61.57;100711.94;5139201;27;1875;-50
2021/08/04 02:20:25;;;;;;;;;;;;;;;20.79;60.19;100710.03;5139973;27;767;-42
2021/08/04 02:23:00;;;;;;;;;;;;;;;20.44;61.21;100711.41;5139511;27;1116;-41
2021/08/04 02:25:25;;;;;;;;;;;;;;;20.37;61.76;100711.81;5122230;27;1985;-58
2021/08/04 02:27:51;;;;;;;;;;;;;;;20.17;60.22;100712.94;5139280;27;1102;-67
2021/08/04 02:30:17;;;;;;;;;;;;;;;19.92;62.58;100714.13;5121737;27;1319;-64
2021/08/04 02:32:42;;;;;;;;;;;;;;;20.22;62.35;100717.56;5158392;27;733;-65
2021/08/04 02:35:08;;;;;;;;;;;;;;;20.71;60.68;100716.25;5139262;27;830;-38
2021/08/04 02:37:34;;;;;;;;;;;;;;;20.86;60.03;100726.22;5139609;27;1380;-42
2021/08/04 02:40:00;;;;;;;;;;;;;;;20.77;60.48;100726.06;5157994;27;829;-65
2021/08/04 02:42:25;;;;;;;;;;;;;;;20.41;61.40;100734.94;5157308;27;1020;-65
2021/08/04 02:44:51;;;;;;;;;;;;;;;20.24;60.94;100727.19;5160865;27;1991;-64
2021/08/04 02:47:16;;;;;;;;;;;;;;;19.90;61.13;100735.69;5161866;27;831;-63
2021/08/04 02:49:41;;;;;;;;;;;;;;;20.13;62.96;100734.81;5143520;27;775;-65
2021/08/04 02:52:08;;;;;;;;;;;;;;;20.62;61.08;100727.13;5162426;27;822;-63
2021/08/04 02:54:34;;;;;;;;;;;;;;;20.66;60.78;100735.63;5143107;27;1130;-40
2021/08/04 02:56:59;;;;;;;;;;;;;;;20.51;61.01;100734.78;5134647;27;1872;-65
2021/08/04 02:59:24;;;;;;;;;;;;;;;20.29;61.96;100738.16;5122698;27;1447;-62
2021/08/04 03:01:50;;;;;;;;;;;;;;;20.18;60.59;100737.47;5122830;27;1105;-63
2021/08/04 03:04:15;;;;;;;;;;;;;;;19.92;61.20;100744.50;5141163;27;815;-51
2021/08/04 03:06:41;;;;;;;;;;;;;;;20.20;63.04;100744.66;5140163;27;1906;-38
2021/08/04 03:09:06;;;;;;;;;;;;;;;20.64;62.14;100744.22;5140877;27;767;-58
2021/08/04 03:11:32;;;;;;;;;;;;;;;20.88;60.41;100737.75;5122378;27;1253;-54
2021/08/04 03:13:57;;;;;;;;;;;;;;;20.61;59.08;100739.31;5140211;27;803;-64
2021/08/04 03:16:23;;;;;;;;;;;;;;;20.42;57.48;100741.28;5122221;27;838;-64
2021/08/04 03:18:49;;;;;;;;;;;;;;;20.03;57.70;100740.47;5140692;27;767;-43
2021/08/04 03:21:14;;;;;;;;;;;;;;;19.97;55.72;100744.44;5140723;27;774;-38
2021/08/04 03:23:40;;;;;;;;;;;;;;;19.61;55.88;100751.19;5140411;27;534;-63
2021/08/04 03:26:05;;;;;;;;;;;;;;;19.88;55.71;100744.28;5139362;27;1922;-63
2021/08/04 03:28:30;;;;;;;;;;;;;;;20.35;57.52;100738.88;5140267;27;810;-63
2021/08/04 03:30:56;;;;;;;;;;;;;;;20.66;58.17;100746.69;5140928;27;812;-63
2021/08/04 03:33:21;;;;;;;;;;;;;;;20.88;58.85;100753.53;5140263;27;866;-63
2021/08/04 03:35:47;;;;;;;;;;;;;;;20.88;59.67;100746.06;5139919;27;767;-57
2021/08/04 03:38:12;;;;;;;;;;;;;;;20.77;61.20;100752.88;5140022;27;855;-38
2021/08/04 03:40:38;;;;;;;;;;;;;;;20.88;61.25;100748.00;5140061;27;886;-57
2021/08/04 03:43:03;;;;;;;;;;;;;;;20.07;61.49;100752.56;5156953;27;969;-43
2021/08/04 03:45:28;;;;;;;;;;;;;;;20.32;62.78;100753.31;5160888;27;1913;-56
2021/08/04 03:47:54;;;;;;;;;;;;;;;20.75;63.62;100755.97;5161034;27;782;-42
2021/08/04 03:50:19;;;;;;;;;;;;;;;21.10;62.58;100753.69;5160904;27;845;-50
2021/08/04 03:52:45;;;;;;;;;;;;;;;21.05;61.47;100758.47;5161548;27;1272;-39
2021/08/04 03:55:10;;;;;;;;;;;;;;;20.58;61.47;100762.00;5176756;27;1078;-58
2021/08/04 03:57:36;;;;;;;;;;;;;;;20.32;59.69;100753.31;5141545;27;1212;-54
2021/08/04 04:00:01;;;;;;;;;;;;;;;19.69;59.36;100763.50;5160693;27;850;-58
2021/08/04 04:02:26;;;;;;;;;;;;;;;19.72;58.58;100757.41;5160231;27;861;-43
2021/08/04 04:04:52;;;;;;;;;;;;;;;19.99;57.38;100755.97;5160080;27;1909;-57
2021/08/04 04:07:17;;;;;;;;;;;;;;;20.18;57.79;100753.22;5160138;27;1061;-56
2021/08/04 04:09:43;;;;;;;;;;;;;;;20.42;58.38;100755.09;5160737;27;779;-49
2021/08/04 04:12:08;;;;;;;;;;;;;;;20.57;58.86;100754.84;5160196;27;1008;-41
2021/08/04 04:14:33;;;;;;;;;;;;;;;20.66;59.41;100757.72;5160274;27;810;-43
2021/08/04 04:16:59;;;;;;;;;;;;;;;20.73;59.81;100758.19;5159539;27;857;-52
2021/08/04 04:19:24;;;;;;;;;;;;;;;20.64;60.43;100771.84;5160442;27;775;-42
2021/08/04 04:21:50;;;;;;;;;;;;;;;20.28;60.20;100760.53;5160118;27;893;-45
2021/08/04 04:24:15;;;;;;;;;;;;;;;20.02;62.42;100769.22;5159861;27;814;-52
2021/08/04 04:26:41;;;;;;;;;;;;;;;20.23;62.67;100766.97;5159369;27;1913;-39
2021/08/04 04:29:06;;;;;;;;;;;;;;;20.55;61.82;100767.31;5160290;27;778;-56
2021/08/04 04:31:31;;;;;;;;;;;;;;;20.75;61.24;100764.25;5159525;27;751;-58
2021/08/04 04:33:57;;;;;;;;;;;;;;;20.57;61.95;100765.09;5159834;27;818;-55
2021/08/04 04:36:22;;;;;;;;;;;;;;;20.51;61.97;100762.38;5159535;27;895;-58
2021/08/04 04:38:48;;;;;;;;;;;;;;;20.04;61.69;100768.91;5159625;27;843;-58
2021/08/04 04:41:13;;;;;;;;;;;;;;;20.09;62.50;100769.66;5159353;27;1012;-40
2021/08/04 04:43:41;;;;;;;;;;;;;;;20.56;63.36;100768.97;5159309;27;815;-58
2021/08/04 04:46:06;;;;;;;;;;;;;;;20.77;62.20;100764.75;5159243;27;1918;-53
2021/08/04 04:48:32;;;;;;;;;;;;;;;21.14;61.08;100768.53;5159736;27;842;-54
2021/08/04 04:50:57;;;;;;;;;;;;;;;21.16;61.15;100765.47;5159557;27;776;-56
2021/08/04 04:53:22;;;;;;;;;;;;;;;21.14;60.84;100768.53;5159089;27;1165;-56
2021/08/04 04:55:48;;;;;;;;;;;;;;;20.04;61.17;100788.22;5159123;27;786;-58
2021/08/04 04:58:13;;;;;;;;;;;;;;;21.10;61.59;100781.34;5140325;27;1088;-45
2021/08/04 05:00:39;;;;;;;;;;;;;;;21.51;60.32;100782.50;5138663;27;790;-39
2021/08/04 05:03:04;;;;;;;;;;;;;;;21.59;59.99;100775.44;5138628;27;811;-39
2021/08/04 05:05:29;;;;;;;;;;;;;;;21.13;61.54;100783.47;5138249;27;1969;-47
2021/08/04 05:07:55;;;;;;;;;;;;;;;20.96;62.10;100789.59;5138060;27;808;-52
2021/08/04 05:10:20;;;;;;;;;;;;;;;20.60;60.76;100786.56;5138395;27;767;-56
2021/08/04 05:12:46;;;;;;;;;;;;;;;20.46;60.79;100792.03;5152584;27;969;-39
2021/08/04 05:15:11;;;;;;;;;;;;;;;21.23;61.01;100785.25;5158746;27;826;-51
2021/08/04 05:17:37;;;;;;;;;;;;;;;21.58;59.88;100793.19;5159140;27;756;-52
2021/08/04 05:20:03;;;;;;;;;;;;;;;21.29;60.75;100794.25;5158997;27;826;-50
2021/08/04 05:22:28;;;;;;;;;;;;;;;21.09;61.70;100798.22;5158458;27;645;-55
2021/08/04 05:24:53;;;;;;;;;;;;;;;20.85;61.55;100794.47;5158776;27;1905;-48
2021/08/04 05:27:19;;;;;;;;;;;;;;;20.50;59.50;100798.59;5158175;27;953;-55
2021/08/04 05:29:44;;;;;;;;;;;;;;;21.20;61.70;100806.03;5158564;27;823;-39
2021/08/04 05:32:10;;;;;;;;;;;;;;;21.76;60.61;100816.38;5158748;27;747;-54
2021/08/04 05:34:35;;;;;;;;;;;;;;;21.26;61.63;100812.28;5158870;27;700;-60
2021/08/04 05:37:00;;;;;;;;;;;;;;;20.77;63.60;100825.53;5158202;27;751;-60
2021/08/04 05:39:26;;;;;;;;;;;;;;;20.71;63.31;100821.22;5158681;27;830;-39
2021/08/04 05:41:51;;;;;;;;;;;;;;;20.23;62.19;100822.19;5158122;27;964;-40
2021/08/04 05:44:16;;;;;;;;;;;;;;;20.49;61.89;100830.09;5158199;27;758;-63
2021/08/04 05:46:42;;;;;;;;;;;;;;;21.38;61.94;100820.09;5157663;27;1905;-60
2021/08/04 05:49:07;;;;;;;;;;;;;;;21.78;61.13;100817.66;5158668;27;809;-56
2021/08/04 05:51:33;;;;;;;;;;;;;;;21.36;62.10;100814.88;5158147;27;794;-54
2021/08/04 05:53:58;;;;;;;;;;;;;;;20.81;63.97;100821.06;5158121;27;1144;-62
2021/08/04 05:56:24;;;;;;;;;;;;;;;20.75;63.55;100830.56;5158152;27;1013;-43
2021/08/04 05:58:49;;;;;;;;;;;;;;;20.18;61.58;100820.31;5157753;27;845;-56
2021/08/04 06:01:14;;;;;;;;;;;;;;;20.37;61.35;100826.97;5158723;27;732;-47
2021/08/04 06:03:40;;;;;;;;;;;;;;;20.35;61.77;100833.59;5158308;27;928;-59
2021/08/04 06:06:05;;;;;;;;;;;;;;;20.62;58.98;100834.03;5148860;27;1913;-55
2021/08/04 06:08:31;;;;;;;;;;;;;;;20.38;57.65;100840.47;5156914;27;826;-53
2021/08/04 06:10:56;;;;;;;;;;;;;;;20.21;56.61;100829.94;5153470;27;862;-44
2021/08/04 06:13:22;;;;;;;;;;;;;;;20.27;55.18;100823.25;5156864;27;826;-44
2021/08/04 06:15:48;;;;;;;;;;;;;;;19.97;55.00;100830.78;5157905;27;810;-49
2021/08/04 06:18:13;;;;;;;;;;;;;;;19.93;54.33;100829.75;5157354;27;823;-49
2021/08/04 06:20:39;;;;;;;;;;;;;;;20.01;53.71;100828.28;5156248;27;856;-51
2021/08/04 06:23:04;;;;;;;;;;;;;;;19.75;54.43;100828.53;5157225;27;920;-42
2021/08/04 06:25:30;;;;;;;;;;;;;;;19.82;54.20;100829.06;5157759;27;1917;-59
2021/08/04 06:27:55;;;;;;;;;;;;;;;19.89;54.94;100833.38;5157331;27;815;-42
2021/08/04 06:30:21;;;;;;;;;;;;;;;20.14;56.04;100830.28;5156239;27;1233;-61
2021/08/04 06:32:46;;;;;;;;;;;;;;;20.65;58.28;100844.50;5157476;27;1205;-40
2021/08/04 06:35:11;;;;;;;;;;;;;;;20.69;61.14;100842.81;5149975;27;1035;-58
2021/08/04 06:37:37;;;;;;;;;;;;;;;20.64;63.73;100840.09;5157736;27;771;-42
2021/08/04 06:40:03;;;;;;;;;;;;;;;20.69;64.05;100840.03;5157568;27;803;-58
2021/08/04 06:42:29;;;;;;;;;;;;;;;20.40;61.79;100841.00;5157307;27;1112;-50
2021/08/04 06:44:54;;;;;;;;;;;;;;;20.71;61.51;100846.09;5157754;27;766;-39
2021/08/04 06:47:20;;;;;;;;;;;;;;;21.48;63.52;100830.97;5156846;27;1962;-41
2021/08/04 06:49:45;;;;;;;;;;;;;;;21.99;64.22;100833.88;5153048;27;1011;-40
2021/08/04 06:52:10;;;;;;;;;;;;;;;21.19;67.39;100834.78;5137041;28;808;-39
2021/08/04 06:54:36;;;;;;;;;;;;;;;21.18;67.44;100838.69;5136544;28;806;-46
2021/08/04 06:57:01;;;;;;;;;;;;;;;20.42;62.94;100840.69;5136624;28;755;-58
2021/08/04 06:59:27;;;;;;;;;;;;;;;20.32;60.37;100842.47;5136854;28;786;-42
2021/08/04 07:01:52;;;;;;;;;;;;;;;20.22;59.83;100841.81;5136850;28;830;-58
2021/08/04 07:04:18;;;;;;;;;;;;;;;20.13;58.03;100834.19;5136291;28;1020;-59
2021/08/04 07:06:53;;;;;;;;;;;;;;;20.14;56.41;100840.53;5136333;28;1906;-43
2021/08/04 07:09:18;;;;;;;;;;;;;;;20.17;55.00;100838.00;5137000;28;767;-58
2021/08/04 07:11:44;;;;;;;;;;;;;;;20.18;55.65;100836.88;5136149;28;752;-45
2021/08/04 07:14:11;;;;;;;;;;;;;;;20.67;57.28;100834.81;5136471;28;756;-57
2021/08/04 07:16:36;;;;;;;;;;;;;;;21.10;59.80;100844.91;5136702;28;778;-51
2021/08/04 07:19:02;;;;;;;;;;;;;;;20.83;63.25;100835.41;5136276;28;763;-47
2021/08/04 07:21:27;;;;;;;;;;;;;;;20.85;65.27;100824.88;5136318;28;977;-58
2021/08/04 07:23:53;;;;;;;;;;;;;;;20.58;64.17;100821.94;5136824;27;1192;-58
2021/08/04 07:26:18;;;;;;;;;;;;;;;20.34;60.93;100831.97;5156662;27;1906;-57
2021/08/04 07:28:44;;;;;;;;;;;;;;;21.16;61.99;100829.88;5157065;27;771;-53
2021/08/04 07:31:09;;;;;;;;;;;;;;;21.51;62.52;100812.94;5160035;27;715;-59
2021/08/04 07:33:34;;;;;;;;;;;;;;;21.62;61.78;100808.06;5160608;27;767;-42
2021/08/04 07:36:00;;;;;;;;;;;;;;;21.52;61.19;100815.41;5160616;27;1004;-59
2021/08/04 07:38:25;;;;;;;;;;;;;;;21.41;59.92;100808.41;5160704;27;835;-41
2021/08/04 07:40:51;;;;;;;;;;;;;;;20.76;61.14;100815.63;5160502;27;865;-61
2021/08/04 07:43:16;;;;;;;;;;;;;;;20.61;61.14;100824.13;5160943;27;827;-51
2021/08/04 07:45:42;;;;;;;;;;;;;;;20.18;60.68;100814.78;5160854;27;1979;-42
2021/08/04 07:48:07;;;;;;;;;;;;;;;19.95;61.07;100816.47;5160473;27;767;-42
2021/08/04 07:50:32;;;;;;;;;;;;;;;20.69;60.00;100829.00;5160163;27;965;-42
2021/08/04 07:52:58;;;;;;;;;;;;;;;20.85;58.93;100833.16;5160622;27;759;-50
2021/08/04 07:55:23;;;;;;;;;;;;;;;21.08;57.82;100836.09;5160319;27;897;-43
2021/08/04 07:57:49;;;;;;;;;;;;;;;20.79;58.62;100833.53;5160282;27;815;-44
2021/08/04 08:00:14;;;;;;;;;;;;;;;20.63;59.12;100824.66;5160991;27;767;-60
2021/08/04 08:02:40;;;;;;;;;;;;;;;20.45;58.67;100827.09;5160086;27;857;-50
2021/08/04 08:05:05;;;;;;;;;;;;;;;19.89;58.94;100833.38;5159788;27;1995;-58
2021/08/04 08:07:31;;;;;;;;;;;;;;;20.49;59.95;100830.91;5160322;27;775;-63
2021/08/04 08:09:56;;;;;;;;;;;;;;;;;;5160208;27;755;-59
2021/08/04 08:12:21;;;;;;;;;;;;;;;21.00;59.36;100825.75;5160642;27;834;-57
2021/08/04 08:14:47;;;;;;;;;;;;;;;20.77;59.92;100822.78;5160842;27;851;-44
2021/08/04 08:17:12;;;;;;;;;;;;;;;20.76;59.93;100818.41;5159645;27;846;-43
2021/08/04 08:19:39;;;;;;;;;;;;;;;19.97;59.52;100818.94;5159506;27;937;-56
2021/08/04 08:22:05;;;;;;;;;;;;;;;20.25;61.21;100821.91;5160422;27;779;-42
2021/08/04 08:24:30;;;;;;;;;;;;;;;21.14;61.67;100817.47;5160076;27;1278;-57
2021/08/04 08:26:55;;;;;;;;;;;;;;;21.58;62.27;100809.78;5159668;27;1909;-42
2021/08/04 08:29:21;;;;;;;;;;;;;;;21.24;64.95;100822.00;5159426;27;866;-42
2021/08/04 08:31:46;;;;;;;;;;;;;;;21.27;65.85;100810.34;5159941;27;771;-42
2021/08/04 08:34:12;;;;;;;;;;;;;;;20.79;61.85;100817.78;5159796;27;873;-41
2021/08/04 08:36:37;;;;;;;;;;;;;;;20.16;58.18;100819.78;5139007;27;953;-42
2021/08/04 08:39:03;;;;;;;;;;;;;;;20.16;60.14;100811.50;5138901;27;771;-42
2021/08/04 08:41:29;;;;;;;;;;;;;;;20.00;59.90;100812.81;5138029;27;886;-42
2021/08/04 08:43:54;;;;;;;;;;;;;;;20.03;57.71;100809.47;5138996;27;772;-42
2021/08/04 08:46:20;;;;;;;;;;;;;;;20.08;55.29;100812.16;5138942;27;1909;-58
2021/08/04 08:48:46;;;;;;;;;;;;;;;20.30;53.18;100810.75;5138427;27;771;-43
2021/08/04 08:51:11;;;;;;;;;;;;;;;20.02;52.65;100818.03;5138546;27;1005;-58
2021/08/04 08:53:38;;;;;;;;;;;;;;;19.90;53.17;100818.50;5120335;27;779;-43
2021/08/04 08:56:06;;;;;;;;;;;;;;;20.05;53.17;100812.78;5119997;27;874;-43
2021/08/04 08:58:32;;;;;;;;;;;;;;;20.02;53.75;100818.88;5138424;27;807;-43
2021/08/04 09:00:57;;;;;;;;;;;;;;;20.18;53.40;100816.72;5138640;27;763;-56
2021/08/04 09:03:23;;;;;;;;;;;;;;;20.13;53.57;100814.88;5138020;27;771;-57
2021/08/04 09:05:52;;;;;;;;;;;;;;;20.29;54.34;100814.66;5137951;27;1992;-52
2021/08/04 09:08:24;;;;;;;;;;;;;;;20.16;56.33;100817.03;5138026;27;846;-42
2021/08/04 09:10:49;;;;;;;;;;;;;;;20.34;57.42;100817.31;5137984;27;850;-45
2021/08/04 09:13:14;;;;;;;;;;;;;;;20.68;57.71;100816.31;5138222;27;815;-43
2021/08/04 09:15:41;;;;;;;;;;;;;;;21.03;57.65;100819.63;5138407;27;815;-43
2021/08/04 09:18:09;;;;;;;;;;;;;;;21.39;57.33;100812.59;5137770;27;787;-43
2021/08/04 09:20:53;;;;;;;;;;;;;;;21.54;57.48;100806.81;5137428;27;981;-43
2021/08/04 09:23:19;;;;;;;;;;;;;;;20.53;57.70;100817.34;5138135;27;783;-54
2021/08/04 09:26:00;;;;;;;;;;;;;;;20.68;59.78;100808.84;5153569;27;1976;-54
2021/08/04 09:28:26;;;;;;;;;;;;;;;21.69;60.16;100817.56;5158639;27;857;-44
2021/08/04 09:30:58;;;;;;;;;;;;;;;22.14;60.36;100811.38;5140419;27;866;-52
2021/08/04 09:33:26;;;;;;;;;;;;;;;21.59;63.81;100822.47;5157864;27;818;-44
2021/08/04 09:35:52;;;;;;;;;;;;;;;21.55;64.99;100811.22;5158973;27;1012;-47
2021/08/04 09:38:19;;;;;;;;;;;;;;;21.06;61.99;100810.72;5158908;27;857;-49
2021/08/04 09:40:44;;;;;;;;;;;;;;;20.66;59.40;100801.94;5157955;27;798;-42
2021/08/04 09:43:10;;;;;;;;;;;;;;;21.12;60.55;100806.72;5159096;27;748;-44
2021/08/04 09:45:38;;;;;;;;;;;;;;;21.20;60.27;100794.97;5158213;27;1966;-42
2021/08/04 09:48:04;;;;;;;;;;;;;;;20.93;58.66;100794.88;5158278;27;878;-48
2021/08/04 09:51:02;;;;;;;;;;;;;;;20.83;56.49;100791.19;5139564;27;1256;-43
2021/08/04 09:53:28;;;;;;;;;;;;;;;20.56;55.54;100778.06;5111745;27;1307;-50
2021/08/04 09:56:05;;;;;;;;;;;;;;;20.50;54.59;100777.31;5158205;27;869;-43
2021/08/04 09:58:31;;;;;;;;;;;;;;;20.47;53.79;100790.91;5157986;27;941;-43
2021/08/04 10:00:58;;;;;;;;;;;;;;;20.28;53.60;100790.91;5158476;27;743;-43
2021/08/04 10:03:24;;;;;;;;;;;;;;;20.21;53.22;100788.53;5139802;27;775;-43
2021/08/04 10:05:49;;;;;;;;;;;;;;;20.17;53.06;100780.03;5157737;27;1909;-46
2021/08/04 10:08:14;;;;;;;;;;;;;;;20.26;52.32;100782.09;5158069;27;797;-53
2021/08/04 10:10:40;;;;;;;;;;;;;;;20.13;52.75;100784.50;5157955;27;775;-55
2021/08/04 10:13:06;;;;;;;;;;;;;;;20.15;53.13;100764.88;5157656;27;790;-43
2021/08/04 10:15:39;;;;;;;;;;;;;;;20.42;53.03;100775.22;5158030;27;786;-55
2021/08/04 10:18:05;;;;;;;;;;;;;;;20.58;54.18;100773.06;5157736;27;751;-42
2021/08/04 10:20:30;;;;;;;;;;;;;;;20.82;55.31;100772.97;5138343;27;953;-55
2021/08/04 10:22:56;;;;;;;;;;;;;;;20.64;57.28;100771.03;5139547;27;861;-52
2021/08/04 10:25:21;;;;;;;;;;;;;;;20.59;58.64;100769.16;5138568;27;1921;-43
2021/08/04 10:27:47;;;;;;;;;;;;;;;20.72;58.61;100772.31;5157787;27;766;-55
2021/08/04 10:30:12;;;;;;;;;;;;;;;20.10;58.76;100767.69;5157756;27;846;-54
2021/08/04 10:32:38;;;;;;;;;;;;;;;20.42;61.05;100758.66;5157789;27;755;-43
2021/08/04 10:35:03;;;;;;;;;;;;;;;21.08;61.40;100753.16;5150769;27;965;-45
2021/08/04 10:37:33;;;;;;;;;;;;;;;21.59;61.77;100754.16;5137163;28;782;-43
2021/08/04 10:39:59;;;;;;;;;;;;;;;21.33;64.02;100754.59;5118408;28;515;-55
2021/08/04 10:42:40;;;;;;;;;;;;;;;21.36;65.03;100754.03;5118682;28;760;-42
2021/08/04 10:45:24;;;;;;;;;;;;;;;21.12;61.41;100754.19;5137045;28;1913;-43
2021/08/04 10:47:52;;;;;;;;;;;;;;;20.73;58.81;100762.91;5136979;28;771;-54
2021/08/04 10:50:18;;;;;;;;;;;;;;;21.16;59.89;100748.88;5145077;27;1008;-43
2021/08/04 10:53:01;;;;;;;;;;;;;;;21.78;60.70;100747.66;5157798;27;755;-43
2021/08/04 10:55:27;;;;;;;;;;;;;;;21.91;60.88;100741.31;5157297;27;907;-43
2021/08/04 10:58:04;;;;;;;;;;;;;;;22.08;61.09;100731.50;5169104;27;1370;-51
2021/08/04 11:00:30;;;;;;;;;;;;;;;21.99;60.55;100732.25;5174928;27;811;-44
2021/08/04 11:02:55;;;;;;;;;;;;;;;21.97;59.43;100725.38;5163167;27;882;-43
2021/08/04 11:05:21;;;;;;;;;;;;;;;21.69;59.28;100720.72;5171072;27;1921;-44
2021/08/04 11:08:05;;;;;;;;;;;;;;;21.60;59.06;100714.28;5161154;27;763;-43
2021/08/04 11:10:37;;;;;;;;;;;;;;;21.29;58.03;100720.41;5162462;27;704;-56
2021/08/04 11:13:02;;;;;;;;;;;;;;;21.01;56.17;100714.88;5161524;27;803;-51
2021/08/04 11:15:29;;;;;;;;;;;;;;;21.15;59.43;100725.94;5160503;27;747;-52
2021/08/04 11:17:55;;;;;;;;;;;;;;;21.43;59.77;100717.63;5161352;27;1008;-43
2021/08/04 11:20:21;;;;;;;;;;;;;;;21.36;59.63;100712.53;5161301;27;1015;-44
2021/08/04 11:22:48;;;;;;;;;;;;;;;21.73;58.22;100715.38;5160671;27;849;-44
2021/08/04 11:25:23;;;;;;;;;;;;;;;21.57;58.63;100708.53;5161171;27;1978;-48
2021/08/04 11:27:48;;;;;;;;;;;;;;;21.50;58.62;100704.22;5161378;27;858;-57
2021/08/04 11:30:27;;;;;;;;;;;;;;;21.30;57.26;100699.09;5160713;27;862;-41
2021/08/04 11:33:12;;;;;;;;;;;;;;;21.04;58.40;100702.34;5160811;27;874;-55
2021/08/04 11:35:38;;;;;;;;;;;;;;;21.30;59.59;100699.09;5148879;27;1256;-53
2021/08/04 11:38:03;;;;;;;;;;;;;;;21.45;58.86;100696.03;5139726;27;882;-52
2021/08/04 11:40:29;;;;;;;;;;;;;;;21.35;58.73;100685.19;5140170;27;862;-43
2021/08/04 11:42:55;;;;;;;;;;;;;;;21.52;58.55;100696.44;5139396;27;870;-51
2021/08/04 11:45:20;;;;;;;;;;;;;;;21.61;58.10;100693.78;5139701;27;1909;-57
2021/08/04 11:47:49;;;;;;;;;;;;;;;21.49;56.51;100694.28;5147433;27;1188;-55
2021/08/04 11:50:14;;;;;;;;;;;;;;;20.77;57.32;100698.44;5147338;27;961;-46
2021/08/04 11:52:40;;;;;;;;;;;;;;;21.27;59.93;100696.97;5159735;27;799;-54
2021/08/04 11:55:12;;;;;;;;;;;;;;;21.55;59.40;100689.50;5141579;27;909;-43
2021/08/04 11:57:46;;;;;;;;;;;;;;;21.70;58.97;100691.91;5159966;27;858;-56
2021/08/04 12:00:18;;;;;;;;;;;;;;;21.56;59.14;100690.28;5159564;27;846;-43
2021/08/04 12:02:43;;;;;;;;;;;;;;;21.51;59.49;100692.00;5159670;27;774;-43
2021/08/04 12:05:10;;;;;;;;;;;;;;;21.24;56.99;100698.38;5159252;27;1913;-43
2021/08/04 12:07:38;;;;;;;;;;;;;;;21.08;59.09;100692.31;5159333;27;770;-39
2021/08/04 12:10:22;;;;;;;;;;;;;;;21.35;60.62;100687.94;5159408;27;711;-40
2021/08/04 12:12:48;;;;;;;;;;;;;;;21.64;59.62;100690.41;5159615;27;850;-54
2021/08/04 12:15:15;;;;;;;;;;;;;;;21.72;59.07;100688.03;5159381;27;839;-39
2021/08/04 12:17:41;;;;;;;;;;;;;;;21.69;59.44;100695.00;5158739;27;810;-39
2021/08/04 12:20:20;;;;;;;;;;;;;;;21.72;58.88;100683.31;5140018;27;969;-39
2021/08/04 12:23:06;;;;;;;;;;;;;;;21.15;56.40;100673.41;5159246;27;783;-53
2021/08/04 12:25:36;;;;;;;;;;;;;;;21.40;59.83;100675.94;5159672;27;1913;-53
2021/08/04 12:28:02;;;;;;;;;;;;;;;21.53;60.51;100675.97;5159860;27;731;-54
2021/08/04 12:30:30;;;;;;;;;;;;;;;21.79;59.41;100683.69;5140432;27;878;-53
2021/08/04 12:33:05;;;;;;;;;;;;;;;21.46;60.33;100674.69;5158877;27;815;-50
2021/08/04 12:35:38;;;;;;;;;;;;;;;21.52;60.09;100674.31;5148315;27;1000;-51
2021/08/04 12:38:05;;;;;;;;;;;;;;;21.39;58.19;100669.59;5138220;27;798;-43
2021/08/04 12:40:31;;;;;;;;;;;;;;;21.26;57.94;100665.69;5120278;27;942;-43
2021/08/04 12:42:57;;;;;;;;;;;;;;;21.93;59.18;100666.25;5137912;27;799;-45
2021/08/04 12:45:27;;;;;;;;;;;;;;;22.02;58.92;100661.56;5137757;27;1914;-40
2021/08/04 12:47:54;;;;;;;;;;;;;;;21.90;58.78;100666.88;5138419;27;768;-41
2021/08/04 12:50:21;;;;;;;;;;;;;;;21.59;59.63;100665.59;5120190;27;934;-40
2021/08/04 12:52:47;;;;;;;;;;;;;;;21.58;59.57;100660.38;5137257;27;763;-56